Time;durP1;ratioP1;P1;durP2;ratioP2;P2;SDS_P1;SDS_P2;PMS_P1;PMS_P2;Temp;Humidity;BMP_temperature;BMP_pressure;BME280_temperature;BME280_humidity;BME280_pressure;Samples;Min_cycle;Max_cycle;Signal;HPM_P1;HPM_P2
2023/05/20 00:00:28;;;;;;;13.15;9.05;;;;;;;;;;4843783;29;20042;-96
2023/05/20 00:02:54;;;;;;;14.93;9.30;;;;;;;;;;4827926;29;20026;-96
2023/05/20 00:05:24;;;;;;;18.33;9.15;;;;;;;;;;4831526;29;20041;-96
2023/05/20 00:11:06;;;;;;;12.82;9.07;;;;;;;;;;4866430;24;20069;-96
2023/05/20 00:13:34;;;;;;;13.35;9.65;;;;;;;;;;4832993;29;20061;-95
2023/05/20 00:16:00;;;;;;;12.10;8.85;;;;;;;;;;4830471;29;20034;-95
2023/05/20 00:18:27;;;;;;;12.23;8.38;;;;;;;;;;4830632;29;20068;-96
2023/05/20 00:20:53;;;;;;;15.30;9.57;;;;;;;;;;4834139;29;20091;-95
2023/05/20 00:23:20;;;;;;;12.30;9.38;;;;;;;;;;4836662;29;20041;-96
2023/05/20 00:25:49;;;;;;;14.77;8.75;;;;;;;;;;4836756;29;20021;-96
2023/05/20 00:28:15;;;;;;;12.93;8.90;;;;;;;;;;4835593;29;20038;-96
2023/05/20 00:30:46;;;;;;;12.20;8.27;;;;;;;;;;4840489;29;20026;-96
2023/05/20 00:33:15;;;;;;;10.95;6.78;;;;;;;;;;4833639;29;20073;-96
2023/05/20 00:35:41;;;;;;;15.75;8.75;;;;;;;;;;4830518;29;20385;-96
2023/05/20 00:38:07;;;;;;;10.93;7.72;;;;;;;;;;4830107;29;20048;-95
2023/05/20 00:40:33;;;;;;;12.75;8.60;;;;;;;;;;4834915;29;20037;-93
2023/05/20 00:43:00;;;;;;;13.73;9.43;;;;;;;;;;4835620;29;20451;-96
2023/05/20 00:45:26;;;;;;;12.52;7.93;;;;;;;;;;4832720;29;20396;-96
2023/05/20 00:48:02;;;;;;;16.10;8.27;;;;;;;;;;4831816;29;20141;-96
2023/05/20 00:50:31;;;;;;;12.65;8.75;;;;;;;;;;4832330;29;20384;-96
2023/05/20 00:53:01;;;;;;;17.83;10.48;;;;;;;;;;4850256;29;20066;-96
2023/05/20 00:55:27;;;;;;;15.63;10.77;;;;;;;;;;4835297;29;20082;-96
2023/05/20 00:57:53;;;;;;;15.20;9.48;;;;;;;;;;4837643;29;20045;-95
2023/05/20 01:00:20;;;;;;;13.90;8.80;;;;;;;;;;4844789;29;20029;-95
2023/05/20 01:02:46;;;;;;;16.13;10.90;;;;;;;;;;4840400;29;20042;-95
2023/05/20 01:05:18;;;;;;;17.08;11.88;;;;;;;;;;4840362;29;20117;-96
2023/05/20 01:07:44;;;;;;;12.38;9.93;;;;;;;;;;4836591;29;20199;-96
2023/05/20 01:10:11;;;;;;;14.73;11.25;;;;;;;;;;4832237;29;20086;-96
2023/05/20 01:12:45;;;;;;;14.73;10.73;;;;;;;;;;4834014;29;20069;-96
2023/05/20 01:15:15;;;;;;;15.45;10.27;;;;;;;;;;4833710;29;20442;-96
2023/05/20 01:17:45;;;;;;;18.95;10.40;;;;;;;;;;4834557;29;20032;-96
2023/05/20 01:20:15;;;;;;;12.48;9.20;;;;;;;;;;4835212;29;20053;-96
2023/05/20 01:22:48;;;;;;;12.43;8.85;;;;;;;;;;4829481;29;20039;-96
2023/05/20 01:25:14;;;;;;;13.83;8.80;;;;;;;;;;4811906;29;20030;-95
2023/05/20 01:27:40;;;;;;;9.25;7.75;;;;;;;;;;4828863;29;20305;-95
2023/05/20 01:30:07;;;;;;;11.90;7.60;;;;;;;;;;4830333;29;20035;-96
2023/05/20 01:32:33;;;;;;;16.38;8.90;;;;;;;;;;4828793;29;20039;-96
2023/05/20 01:35:00;;;;;;;14.68;8.60;;;;;;;;;;4831428;29;20496;-96
2023/05/20 01:37:27;;;;;;;13.20;7.63;;;;;;;;;;4832010;29;20483;-94
2023/05/20 01:39:54;;;;;;;14.23;8.57;;;;;;;;;;4831081;29;20034;-96
2023/05/20 01:42:23;;;;;;;16.42;9.15;;;;;;;;;;4830945;29;20056;-96
2023/05/20 01:44:49;;;;;;;13.68;8.40;;;;;;;;;;4835982;29;20034;-96
2023/05/20 01:47:15;;;;;;;17.30;9.85;;;;;;;;;;4836323;29;20045;-96
2023/05/20 01:49:42;;;;;;;19.90;10.38;;;;;;;;;;4831125;29;20033;-96
2023/05/20 01:52:08;;;;;;;13.10;9.05;;;;;;;;;;4829316;29;20038;-96
2023/05/20 01:54:34;;;;;;;15.80;10.48;;;;;;;;;;4829654;29;20116;-93
2023/05/20 01:57:01;;;;;;;14.88;10.52;;;;;;;;;;4830475;29;20038;-96
2023/05/20 01:59:28;;;;;;;11.52;7.72;;;;;;;;;;4829515;29;20030;-96
2023/05/20 02:01:54;;;;;;;11.35;7.95;;;;;;;;;;4829374;29;20139;-96
2023/05/20 02:04:21;;;;;;;17.20;10.27;;;;;;;;;;4829827;29;20030;-96
2023/05/20 02:06:48;;;;;;;14.40;9.27;;;;;;;;;;4829781;29;20074;-95
2023/05/20 02:09:14;;;;;;;13.07;8.30;;;;;;;;;;4829797;29;20026;-96
2023/05/20 02:11:40;;;;;;;14.98;9.52;;;;;;;;;;4828780;29;20059;-96
2023/05/20 02:14:09;;;;;;;15.27;9.27;;;;;;;;;;4827771;29;20385;-96
2023/05/20 02:16:35;;;;;;;16.27;10.27;;;;;;;;;;4828394;29;20045;-96
2023/05/20 02:19:01;;;;;;;14.38;9.27;;;;;;;;;;4828813;29;20041;-95
2023/05/20 02:21:27;;;;;;;14.18;9.23;;;;;;;;;;4828680;29;20125;-96
2023/05/20 02:23:53;;;;;;;18.05;9.63;;;;;;;;;;4827955;29;20396;-96
2023/05/20 02:26:22;;;;;;;13.82;8.98;;;;;;;;;;4827930;29;20030;-96
2023/05/20 02:28:49;;;;;;;9.75;6.80;;;;;;;;;;4826956;29;20075;-96
2023/05/20 02:31:16;;;;;;;11.68;8.55;;;;;;;;;;4828538;29;20030;-96
2023/05/20 02:33:42;;;;;;;14.02;8.10;;;;;;;;;;4827940;29;20038;-96
2023/05/20 02:36:09;;;;;;;14.00;9.30;;;;;;;;;;4828028;29;20030;-94
2023/05/20 02:38:35;;;;;;;14.27;10.13;;;;;;;;;;4828483;29;20038;-96
2023/05/20 02:41:03;;;;;;;19.95;10.82;;;;;;;;;;4829184;29;20116;-95
2023/05/20 02:43:30;;;;;;;15.10;10.27;;;;;;;;;;4828100;29;20030;-96
2023/05/20 02:45:56;;;;;;;17.05;10.57;;;;;;;;;;4827784;29;20479;-96
2023/05/20 02:48:22;;;;;;;18.02;10.15;;;;;;;;;;4834781;29;20045;-94
2023/05/20 02:50:48;;;;;;;14.30;10.57;;;;;;;;;;4840700;29;20033;-96
2023/05/20 02:53:15;;;;;;;18.33;11.48;;;;;;;;;;4830585;29;20121;-96
2023/05/20 02:55:41;;;;;;;15.00;11.20;;;;;;;;;;4827742;29;20026;-96
2023/05/20 02:58:07;;;;;;;16.75;10.90;;;;;;;;;;4827386;29;20030;-96
2023/05/20 03:00:39;;;;;;;20.58;12.60;;;;;;;;;;4827619;29;20388;-96
2023/05/20 03:03:06;;;;;;;15.55;9.07;;;;;;;;;;4828280;29;20029;-96
2023/05/20 03:05:36;;;;;;;15.27;10.95;;;;;;;;;;4828091;29;20372;-96
2023/05/20 03:08:02;;;;;;;14.55;11.68;;;;;;;;;;4828140;29;20376;-96
2023/05/20 03:10:28;;;;;;;15.93;10.73;;;;;;;;;;4779845;29;1443129;-96
2023/05/20 03:12:55;;;;;;;17.73;11.98;;;;;;;;;;4828745;29;20082;-96
2023/05/20 03:15:23;;;;;;;8.35;6.32;;;;;;;;;;4828610;29;20037;-96
2023/05/20 03:17:50;;;;;;;20.23;11.82;;;;;;;;;;4829113;29;20057;-95
2023/05/20 03:20:16;;;;;;;19.05;11.63;;;;;;;;;;4828374;29;20026;-96
2023/05/20 03:22:42;;;;;;;16.50;11.68;;;;;;;;;;4828316;29;20038;-96
2023/05/20 03:25:09;;;;;;;10.80;8.65;;;;;;;;;;4828194;29;20026;-96
2023/05/20 03:27:36;;;;;;;19.33;12.18;;;;;;;;;;4828495;29;20050;-96
2023/05/20 03:30:03;;;;;;;17.73;11.38;;;;;;;;;;4827637;29;20034;-96
2023/05/20 03:32:30;;;;;;;18.52;11.95;;;;;;;;;;4828983;29;20145;-94
2023/05/20 03:34:57;;;;;;;13.27;11.20;;;;;;;;;;4827242;29;20082;-93
2023/05/20 03:37:23;;;;;;;12.07;8.25;;;;;;;;;;4827772;29;20048;-94
2023/05/20 03:39:51;;;;;;;17.05;8.57;;;;;;;;;;4829405;29;20026;-96
2023/05/20 03:42:18;;;;;;;16.85;11.98;;;;;;;;;;4831807;29;20037;-95
2023/05/20 03:44:44;;;;;;;17.00;13.45;;;;;;;;;;4830682;29;20045;-95
2023/05/20 03:47:10;;;;;;;18.38;12.10;;;;;;;;;;4830916;29;20033;-96
2023/05/20 03:49:38;;;;;;;15.35;11.75;;;;;;;;;;4830876;29;20095;-93
2023/05/20 03:52:04;;;;;;;16.15;12.45;;;;;;;;;;4835880;29;20026;-94
2023/05/20 03:54:31;;;;;;;15.05;10.63;;;;;;;;;;4849798;29;20067;-92
2023/05/20 03:56:57;;;;;;;16.88;12.70;;;;;;;;;;4843932;29;20053;-96
2023/05/20 03:59:23;;;;;;;17.25;11.35;;;;;;;;;;4833864;29;20041;-96
2023/05/20 04:01:52;;;;;;;15.30;11.80;;;;;;;;;;4832466;29;20030;-95
2023/05/20 04:04:23;;;;;;;13.02;11.30;;;;;;;;;;4832358;29;20026;-96
2023/05/20 04:06:57;;;;;;;12.45;8.00;;;;;;;;;;4830931;29;20040;-95
2023/05/20 04:09:23;;;;;;;10.65;8.18;;;;;;;;;;4834169;29;20041;-94
2023/05/20 04:11:52;;;;;;;14.23;10.52;;;;;;;;;;4834853;29;20057;-96
2023/05/20 04:14:20;;;;;;;12.38;9.25;;;;;;;;;;4835005;29;20113;-96
2023/05/20 04:16:49;;;;;;;15.65;10.15;;;;;;;;;;4836385;29;20030;-96
2023/05/20 04:19:18;;;;;;;11.70;8.65;;;;;;;;;;4850390;29;20118;-95
2023/05/20 04:21:58;;;;;;;11.60;9.68;;;;;;;;;;4836445;29;20034;-96
2023/05/20 04:24:25;;;;;;;9.25;8.30;;;;;;;;;;4837647;29;20058;-96
2023/05/20 04:26:57;;;;;;;10.75;6.82;;;;;;;;;;4838379;29;20042;-96
2023/05/20 04:29:24;;;;;;;7.25;5.68;;;;;;;;;;4819269;29;20038;-95
2023/05/20 04:31:50;;;;;;;10.60;5.90;;;;;;;;;;4830548;29;20037;-95
2023/05/20 04:34:18;;;;;;;10.55;7.25;;;;;;;;;;4830097;29;20093;-96
2023/05/20 04:36:45;;;;;;;14.85;6.70;;;;;;;;;;4829162;29;20120;-93
2023/05/20 04:39:11;;;;;;;9.07;6.22;;;;;;;;;;4829140;29;20041;-94
2023/05/20 04:41:38;;;;;;;7.43;5.82;;;;;;;;;;4829204;29;20033;-96
2023/05/20 04:44:05;;;;;;;7.65;5.70;;;;;;;;;;4829387;29;20033;-94
2023/05/20 04:46:32;;;;;;;9.82;5.43;;;;;;;;;;4829034;29;20050;-94
2023/05/20 04:48:58;;;;;;;9.77;5.45;;;;;;;;;;4829695;29;20034;-95
2023/05/20 04:51:24;;;;;;;7.38;5.22;;;;;;;;;;4835443;29;20030;-96
2023/05/20 04:53:55;;;;;;;5.65;4.22;;;;;;;;;;4838212;29;20041;-96
2023/05/20 04:56:28;;;;;;;7.72;6.50;;;;;;;;;;4842563;29;20030;-95
2023/05/20 04:58:58;;;;;;;7.45;5.50;;;;;;;;;;4842227;29;20049;-95
2023/05/20 05:01:44;;;;;;;9.32;6.05;;;;;;;;;;4826988;29;20632;-96
2023/05/20 05:04:32;;;;;;;8.45;6.20;;;;;;;;;;4843549;29;20036;-92
2023/05/20 05:07:01;;;;;;;6.13;5.03;;;;;;;;;;4860403;29;20136;-94
2023/05/20 05:09:32;;;;;;;7.25;4.30;;;;;;;;;;4838468;29;20034;-96
2023/05/20 05:11:58;;;;;;;6.65;4.85;;;;;;;;;;4845092;29;20058;-96
2023/05/20 05:14:25;;;;;;;6.07;4.80;;;;;;;;;;4841434;29;20042;-96
2023/05/20 05:16:53;;;;;;;5.65;3.58;;;;;;;;;;4835776;29;20083;-96
2023/05/20 05:19:39;;;;;;;7.63;4.38;;;;;;;;;;4817627;29;20042;-96
2023/05/20 05:22:05;;;;;;;5.72;3.90;;;;;;;;;;4836773;29;20034;-96
2023/05/20 05:24:57;;;;;;;7.53;4.13;;;;;;;;;;4837681;29;20061;-96
2023/05/20 05:27:35;;;;;;;7.53;3.90;;;;;;;;;;4844252;29;20050;-96
2023/05/20 05:30:02;;;;;;;6.65;3.65;;;;;;;;;;4830899;29;20030;-96
2023/05/20 05:32:29;;;;;;;5.57;3.95;;;;;;;;;;4848069;29;20373;-96
2023/05/20 05:34:56;;;;;;;5.05;4.07;;;;;;;;;;4829412;29;20090;-96
2023/05/20 05:37:30;;;;;;;5.60;4.03;;;;;;;;;;4830945;29;20138;-96
2023/05/20 05:39:57;;;;;;;6.38;3.92;;;;;;;;;;4830707;29;20034;-96
2023/05/20 05:42:26;;;;;;;5.80;3.67;;;;;;;;;;4829851;29;20085;-96
2023/05/20 05:44:52;;;;;;;5.85;3.80;;;;;;;;;;4830651;29;20030;-96
2023/05/20 05:47:48;;;;;;;5.22;3.88;;;;;;;;;;4852253;29;20034;-96
2023/05/20 05:50:34;;;;;;;6.50;4.10;;;;;;;;;;4849370;29;20026;-96
2023/05/20 05:53:19;;;;;;;15.15;4.07;;;;;;;;;;4832615;29;20483;-95
2023/05/20 05:55:46;;;;;;;7.32;4.07;;;;;;;;;;4832079;29;20034;-96
2023/05/20 05:58:12;;;;;;;6.38;4.20;;;;;;;;;;4830567;29;20133;-96
2023/05/20 06:00:38;;;;;;;8.32;4.25;;;;;;;;;;4829459;29;20038;-96
2023/05/20 06:03:07;;;;;;;7.30;3.90;;;;;;;;;;4832745;29;20049;-96
2023/05/20 06:05:33;;;;;;;7.15;3.90;;;;;;;;;;4833031;29;20037;-95
2023/05/20 06:07:59;;;;;;;5.78;3.90;;;;;;;;;;4828907;29;20067;-94
2023/05/20 06:10:26;;;;;;;5.55;3.38;;;;;;;;;;4845260;29;20070;-94
2023/05/20 06:12:53;;;;;;;4.85;3.60;;;;;;;;;;4845607;29;20048;-94
2023/05/20 06:15:27;;;;;;;4.78;3.70;;;;;;;;;;4830040;29;20034;-94
2023/05/20 06:17:56;;;;;;;5.25;3.33;;;;;;;;;;4828616;29;20037;-94
2023/05/20 06:20:25;;;;;;;7.18;3.85;;;;;;;;;;4828394;29;20034;-95
2023/05/20 06:22:56;;;;;;;8.13;4.15;;;;;;;;;;4830796;29;20034;-96
2023/05/20 06:25:22;;;;;;;6.88;3.60;;;;;;;;;;4829991;29;20034;-96
2023/05/20 06:27:51;;;;;;;10.48;4.07;;;;;;;;;;4830086;29;20472;-96
2023/05/20 06:30:21;;;;;;;8.35;3.80;;;;;;;;;;4831602;29;20086;-96
2023/05/20 06:32:48;;;;;;;6.57;3.80;;;;;;;;;;4849691;29;20040;-96
2023/05/20 06:35:16;;;;;;;5.15;3.55;;;;;;;;;;4833414;29;20037;-96
2023/05/20 06:37:42;;;;;;;5.85;4.22;;;;;;;;;;4834645;29;20034;-96
2023/05/20 06:40:10;;;;;;;6.65;3.40;;;;;;;;;;4839356;29;20030;-96
2023/05/20 06:42:38;;;;;;;4.80;3.47;;;;;;;;;;4851548;29;20029;-94
2023/05/20 06:45:09;;;;;;;5.43;3.80;;;;;;;;;;4837856;29;20037;-96
2023/05/20 06:47:37;;;;;;;5.22;3.47;;;;;;;;;;4836983;29;20054;-96
2023/05/20 06:50:03;;;;;;;5.65;3.67;;;;;;;;;;4826324;29;20042;-96
2023/05/20 06:52:37;;;;;;;6.22;3.70;;;;;;;;;;4839421;29;20033;-96
2023/05/20 06:55:15;;;;;;;;;;;;;;;;;;;;;
2023/05/20 06:57:44;;;;;;;5.50;3.70;;;;;;;;;;4830004;29;20124;-95
2023/05/20 07:03:12;;;;;;;4.90;3.47;;;;;;;;;;4819132;29;20042;-94
2023/05/20 07:05:42;;;;;;;6.70;3.70;;;;;;;;;;4851592;29;20055;-96
2023/05/20 07:08:09;;;;;;;5.70;3.72;;;;;;;;;;4832573;29;20416;-96
2023/05/20 07:10:35;;;;;;;7.10;3.78;;;;;;;;;;4818864;29;20053;-96
2023/05/20 07:13:02;;;;;;;5.40;3.83;;;;;;;;;;4833807;29;20552;-96
2023/05/20 07:15:35;;;;;;;5.72;3.60;;;;;;;;;;4836907;29;20018;-96
2023/05/20 07:18:02;;;;;;;7.32;3.83;;;;;;;;;;4845619;29;20045;-96
2023/05/20 07:20:29;;;;;;;4.43;3.58;;;;;;;;;;4844290;29;20030;-96
2023/05/20 07:22:55;;;;;;;5.47;3.70;;;;;;;;;;4841617;29;20037;-96
2023/05/20 07:25:24;;;;;;;6.68;3.90;;;;;;;;;;4836927;29;20057;-96
2023/05/20 07:27:51;;;;;;;6.63;4.15;;;;;;;;;;4821560;29;20046;-96
2023/05/20 07:30:17;;;;;;;6.53;3.85;;;;;;;;;;4823102;29;20135;-96
2023/05/20 07:32:43;;;;;;;7.50;4.40;;;;;;;;;;4841121;29;20069;-96
2023/05/20 07:35:11;;;;;;;7.45;4.35;;;;;;;;;;4849838;29;20049;-96
2023/05/20 07:37:47;;;;;;;8.98;4.15;;;;;;;;;;4850628;29;20029;-96
2023/05/20 07:40:19;;;;;;;6.97;4.40;;;;;;;;;;4834973;29;20037;-96
2023/05/20 07:43:08;;;;;;;5.22;4.57;;;;;;;;;;4831513;29;20034;-96
2023/05/20 07:45:38;;;;;;;9.73;4.30;;;;;;;;;;4826964;29;20037;-96
2023/05/20 07:48:07;;;;;;;6.88;4.32;;;;;;;;;;4827217;29;20048;-96
2023/05/20 07:50:33;;;;;;;8.55;4.57;;;;;;;;;;4823820;29;20045;-94
2023/05/20 07:52:59;;;;;;;5.15;3.85;;;;;;;;;;4819474;29;20062;-95
2023/05/20 07:55:26;;;;;;;6.20;4.82;;;;;;;;;;4814714;29;20032;-94
2023/05/20 07:57:52;;;;;;;6.28;4.15;;;;;;;;;;4810310;29;20121;-93
2023/05/20 08:00:18;;;;;;;9.00;4.65;;;;;;;;;;4824318;29;20030;-95
2023/05/20 08:02:45;;;;;;;8.70;5.03;;;;;;;;;;4808569;29;20034;-96
2023/05/20 08:05:13;;;;;;;7.78;4.68;;;;;;;;;;4827318;29;20042;-96
2023/05/20 08:07:39;;;;;;;6.75;4.63;;;;;;;;;;4826521;29;20041;-94
2023/05/20 08:10:27;;;;;;;6.30;4.95;;;;;;;;;;4826667;29;20575;-93
2023/05/20 08:12:52;;;;;;;9.35;4.80;;;;;;;;;;4842197;29;20034;-94
2023/05/20 08:15:18;;;;;;;7.70;4.22;;;;;;;;;;4826923;29;20476;-93
2023/05/20 08:17:44;;;;;;;8.90;4.95;;;;;;;;;;4828693;29;20065;-96
2023/05/20 08:20:13;;;;;;;7.30;4.85;;;;;;;;;;4828882;29;20030;-94
2023/05/20 08:22:39;;;;;;;5.10;3.60;;;;;;;;;;4797836;29;20042;-95
2023/05/20 08:25:09;;;;;;;7.88;3.92;;;;;;;;;;4808381;29;20030;-94
2023/05/20 08:27:36;;;;;;;6.43;4.60;;;;;;;;;;4826123;29;20049;-92
2023/05/20 08:30:04;;;;;;;5.35;3.90;;;;;;;;;;4831957;29;20666;-93
2023/05/20 08:32:30;;;;;;;6.63;4.43;;;;;;;;;;4848416;29;20034;-96
2023/05/20 08:35:00;;;;;;;6.07;4.60;;;;;;;;;;4833032;29;20053;-96
2023/05/20 08:38:05;;;;;;;8.68;4.60;;;;;;;;;;4849299;29;20038;-96
2023/05/20 08:40:35;;;;;;;5.05;3.92;;;;;;;;;;4835562;29;20069;-96
2023/05/20 08:43:01;;;;;;;4.47;4.00;;;;;;;;;;4833630;29;20068;-96
2023/05/20 08:45:32;;;;;;;8.00;4.63;;;;;;;;;;4854748;29;20026;-96
2023/05/20 08:48:01;;;;;;;5.68;4.00;;;;;;;;;;4832572;29;20045;-96
2023/05/20 08:50:27;;;;;;;9.27;4.50;;;;;;;;;;4832580;29;20158;-96
2023/05/20 08:52:55;;;;;;;6.65;4.50;;;;;;;;;;4837763;29;20051;-96
2023/05/20 08:55:35;;;;;;;7.90;4.50;;;;;;;;;;4833407;29;20083;-95
2023/05/20 08:58:05;;;;;;;7.00;4.20;;;;;;;;;;4830062;29;20026;-93
2023/05/20 09:00:32;;;;;;;10.68;4.53;;;;;;;;;;4831322;29;20104;-94
2023/05/20 09:02:59;;;;;;;5.50;4.45;;;;;;;;;;4814044;29;20551;-93
2023/05/20 09:05:26;;;;;;;6.00;4.45;;;;;;;;;;4833855;29;20038;-94
2023/05/20 09:07:55;;;;;;;5.90;4.70;;;;;;;;;;4835810;29;20038;-96
2023/05/20 09:10:22;;;;;;;9.30;5.47;;;;;;;;;;4851437;29;20102;-95
2023/05/20 09:12:49;;;;;;;7.72;5.43;;;;;;;;;;4851525;29;20061;-96
2023/05/20 09:15:15;;;;;;;6.15;4.88;;;;;;;;;;4850812;29;20120;-96
2023/05/20 09:18:03;;;;;;;6.35;4.93;;;;;;;;;;4849121;29;20044;-96
2023/05/20 09:20:42;;;;;;;6.90;5.43;;;;;;;;;;4847655;29;20037;-96
2023/05/20 09:23:09;;;;;;;7.35;5.60;;;;;;;;;;4847787;29;20601;-95
2023/05/20 09:25:36;;;;;;;7.68;5.40;;;;;;;;;;4849110;29;20029;-95
2023/05/20 09:28:04;;;;;;;6.88;5.68;;;;;;;;;;4847621;29;20068;-96
2023/05/20 09:30:31;;;;;;;7.82;5.00;;;;;;;;;;4847350;29;20026;-96
2023/05/20 09:32:59;;;;;;;8.70;5.38;;;;;;;;;;4849156;29;20029;-95
2023/05/20 09:35:27;;;;;;;7.13;5.45;;;;;;;;;;4864790;29;20036;-95
2023/05/20 09:37:55;;;;;;;7.95;5.22;;;;;;;;;;4846798;29;20037;-96
2023/05/20 09:40:49;;;;;;;7.20;5.35;;;;;;;;;;4848671;29;20030;-95
2023/05/20 09:43:23;;;;;;;8.35;5.40;;;;;;;;;;4857230;29;20551;-96
2023/05/20 09:45:54;;;;;;;11.13;4.97;;;;;;;;;;4863344;29;20548;-94
2023/05/20 09:48:21;;;;;;;6.85;5.60;;;;;;;;;;4847587;29;20045;-95
2023/05/20 09:50:48;;;;;;;8.25;5.35;;;;;;;;;;4847209;29;20116;-95
2023/05/20 09:53:15;;;;;;;8.68;5.07;;;;;;;;;;4832088;29;20042;-96
2023/05/20 09:55:42;;;;;;;8.15;4.90;;;;;;;;;;4846909;29;20045;-94
2023/05/20 09:58:09;;;;;;;7.60;4.72;;;;;;;;;;4848254;29;20517;-96
2023/05/20 10:00:35;;;;;;;6.72;5.40;;;;;;;;;;4831674;29;20505;-95
2023/05/20 10:03:02;;;;;;;6.50;5.38;;;;;;;;;;4847107;29;20105;-96
2023/05/20 10:05:30;;;;;;;7.32;5.75;;;;;;;;;;4846823;29;20030;-96
2023/05/20 10:08:19;;;;;;;7.60;5.40;;;;;;;;;;4848959;29;20044;-94
2023/05/20 10:10:49;;;;;;;6.50;5.78;;;;;;;;;;4832790;29;20045;-96
2023/05/20 10:13:16;;;;;;;8.02;5.60;;;;;;;;;;4844875;29;20132;-95
2023/05/20 10:15:52;;;;;;;7.80;5.68;;;;;;;;;;4829227;29;20066;-96
2023/05/20 10:18:25;;;;;;;11.23;5.35;;;;;;;;;;4828448;29;20132;-95
2023/05/20 10:20:52;;;;;;;9.60;6.03;;;;;;;;;;4828090;29;20133;-95
2023/05/20 10:23:27;;;;;;;8.27;5.35;;;;;;;;;;4828877;29;20038;-96
2023/05/20 10:25:58;;;;;;;9.82;5.30;;;;;;;;;;4828919;29;20090;-96
2023/05/20 10:28:31;;;;;;;6.70;5.70;;;;;;;;;;4793475;29;20514;-96
2023/05/20 10:30:58;;;;;;;9.30;5.63;;;;;;;;;;4823545;29;20041;-96
2023/05/20 10:33:28;;;;;;;8.25;5.30;;;;;;;;;;4813255;29;20124;-95
2023/05/20 10:35:58;;;;;;;9.02;5.40;;;;;;;;;;4828602;29;20026;-95
2023/05/20 10:38:31;;;;;;;6.80;5.18;;;;;;;;;;4845452;29;20029;-96
2023/05/20 10:41:07;;;;;;;6.80;5.13;;;;;;;;;;4827501;29;20037;-93
2023/05/20 10:43:34;;;;;;;7.28;5.35;;;;;;;;;;4827282;29;20117;-92
2023/05/20 10:46:00;;;;;;;8.15;5.45;;;;;;;;;;4828682;29;20026;-95
2023/05/20 10:48:33;;;;;;;6.50;5.32;;;;;;;;;;4826862;29;20041;-95
2023/05/20 10:51:02;;;;;;;6.20;5.60;;;;;;;;;;4827284;29;20117;-95
2023/05/20 10:53:30;;;;;;;6.90;4.93;;;;;;;;;;4843942;29;20108;-96
2023/05/20 10:55:56;;;;;;;10.60;5.30;;;;;;;;;;4827283;29;20152;-95
2023/05/20 10:58:23;;;;;;;6.75;5.45;;;;;;;;;;4842994;29;20120;-96
2023/05/20 11:00:55;;;;;;;8.20;5.93;;;;;;;;;;4827181;29;20061;-94
2023/05/20 11:03:22;;;;;;;8.13;5.60;;;;;;;;;;4827243;29;20026;-95
2023/05/20 11:05:48;;;;;;;9.20;6.30;;;;;;;;;;4825992;29;20030;-95
2023/05/20 11:08:27;;;;;;;8.55;6.32;;;;;;;;;;4828597;29;20042;-95
2023/05/20 11:11:15;;;;;;;6.65;5.57;;;;;;;;;;4825914;29;20066;-96
2023/05/20 11:13:59;;;;;;;9.52;5.70;;;;;;;;;;4842106;29;20038;-95
2023/05/20 11:16:25;;;;;;;8.30;6.10;;;;;;;;;;4813505;29;20063;-94
2023/05/20 11:18:57;;;;;;;11.02;5.93;;;;;;;;;;4843163;29;20038;-94
2023/05/20 11:21:23;;;;;;;8.88;5.68;;;;;;;;;;4811878;29;20395;-93
2023/05/20 11:23:51;;;;;;;9.18;6.28;;;;;;;;;;4827576;29;20049;-93
2023/05/20 11:26:17;;;;;;;7.30;5.80;;;;;;;;;;4831242;29;20034;-93
2023/05/20 11:28:43;;;;;;;7.20;5.88;;;;;;;;;;4827771;29;20050;-94
2023/05/20 11:31:09;;;;;;;9.88;6.30;;;;;;;;;;4808673;29;20054;-92
2023/05/20 11:33:41;;;;;;;8.32;6.50;;;;;;;;;;4847806;24;20194;-94
2023/05/20 11:36:08;;;;;;;9.43;6.47;;;;;;;;;;4843492;29;20045;-95
2023/05/20 11:38:35;;;;;;;7.93;6.28;;;;;;;;;;4845526;29;20033;-95
2023/05/20 11:41:01;;;;;;;11.98;6.68;;;;;;;;;;4845034;29;20022;-94
2023/05/20 11:43:34;;;;;;;7.70;6.20;;;;;;;;;;4845153;29;20053;-93
2023/05/20 11:46:01;;;;;;;7.65;6.35;;;;;;;;;;4845875;29;20034;-95
2023/05/20 11:48:27;;;;;;;7.13;6.18;;;;;;;;;;4837423;29;20042;-92
2023/05/20 11:50:54;;;;;;;7.55;6.35;;;;;;;;;;4843320;29;20081;-94
2023/05/20 11:53:21;;;;;;;8.07;6.35;;;;;;;;;;4844712;29;20026;-93
2023/05/20 11:55:47;;;;;;;7.40;6.10;;;;;;;;;;4845578;29;20051;-94
2023/05/20 11:58:18;;;;;;;8.90;6.00;;;;;;;;;;4844909;29;20037;-90
2023/05/20 12:00:46;;;;;;;7.07;6.18;;;;;;;;;;4853426;29;20064;-92
2023/05/20 12:03:13;;;;;;;6.70;5.97;;;;;;;;;;4867505;29;20044;-96
2023/05/20 12:05:39;;;;;;;7.70;5.68;;;;;;;;;;4867774;29;20029;-94
2023/05/20 12:08:06;;;;;;;8.82;5.90;;;;;;;;;;4867205;29;20071;-92
2023/05/20 12:10:32;;;;;;;7.70;5.80;;;;;;;;;;4863022;29;20029;-93
2023/05/20 12:13:00;;;;;;;8.98;5.88;;;;;;;;;;4853061;29;20049;-95
2023/05/20 12:15:26;;;;;;;6.40;5.60;;;;;;;;;;4858431;29;20556;-93
2023/05/20 12:17:55;;;;;;;8.13;6.10;;;;;;;;;;4849310;29;20479;-95
2023/05/20 12:20:22;;;;;;;8.77;6.03;;;;;;;;;;4850701;29;20021;-94
2023/05/20 12:22:50;;;;;;;9.38;5.97;;;;;;;;;;4868818;29;20029;-94
2023/05/20 12:25:18;;;;;;;10.00;6.53;;;;;;;;;;4848805;29;20048;-95
2023/05/20 12:27:49;;;;;;;8.13;5.80;;;;;;;;;;4854284;29;20295;-94
2023/05/20 12:30:16;;;;;;;8.65;6.15;;;;;;;;;;4842246;29;20456;-91
2023/05/20 12:32:44;;;;;;;8.00;6.15;;;;;;;;;;4836333;29;20030;-95
2023/05/20 12:35:11;;;;;;;9.90;6.43;;;;;;;;;;4835165;29;20089;-96
2023/05/20 12:37:38;;;;;;;10.45;6.18;;;;;;;;;;4854225;29;20446;-94
2023/05/20 12:43:15;;;;;;;8.45;6.32;;;;;;;;;;4786541;29;20051;-94
2023/05/20 12:46:19;;;;;;;11.65;6.97;;;;;;;;;;4831100;29;20030;-95
2023/05/20 12:48:49;;;;;;;9.35;6.25;;;;;;;;;;4851557;29;20153;-96
2023/05/20 12:51:15;;;;;;;7.00;6.30;;;;;;;;;;4872077;29;20029;-96
2023/05/20 12:54:09;;;;;;;11.48;6.47;;;;;;;;;;4872278;29;20036;-96
2023/05/20 13:02:12;;;;;;;11.00;6.45;;;;;;;;;;4872023;24;19924;-95
2023/05/20 13:04:38;;;;;;;8.50;6.55;;;;;;;;;;4849886;29;20029;-94
2023/05/20 13:07:05;;;;;;;8.50;6.35;;;;;;;;;;4848558;29;20034;-92
2023/05/20 13:09:32;;;;;;;9.18;6.15;;;;;;;;;;4841743;29;20037;-90
2023/05/20 13:11:58;;;;;;;9.05;6.57;;;;;;;;;;4839486;29;20086;-92
2023/05/20 13:14:24;;;;;;;7.57;5.93;;;;;;;;;;4847346;29;20124;-90
2023/05/20 13:16:53;;;;;;;8.73;6.32;;;;;;;;;;4844957;29;20086;-93
2023/05/20 13:19:50;;;;;;;9.48;6.50;;;;;;;;;;4848858;29;20042;-94
2023/05/20 13:22:44;;;;;;;10.48;6.50;;;;;;;;;;4860690;29;20025;-96
2023/05/20 13:25:10;;;;;;;7.88;6.05;;;;;;;;;;4829383;29;20038;-90
2023/05/20 13:27:51;;;;;;;8.07;6.13;;;;;;;;;;4849872;29;20047;-96
2023/05/20 13:30:20;;;;;;;9.70;7.07;;;;;;;;;;4852408;29;20467;-96
2023/05/20 13:32:47;;;;;;;8.55;6.82;;;;;;;;;;4849166;29;20033;-94
2023/05/20 13:35:15;;;;;;;8.85;6.22;;;;;;;;;;4831255;29;20037;-96
2023/05/20 13:37:45;;;;;;;8.60;6.30;;;;;;;;;;4857432;29;20483;-94
2023/05/20 13:40:11;;;;;;;12.05;6.28;;;;;;;;;;4850873;29;20150;-90
2023/05/20 13:42:37;;;;;;;11.02;6.43;;;;;;;;;;4837299;29;20034;-88
2023/05/20 13:45:05;;;;;;;9.05;6.00;;;;;;;;;;4835215;29;20480;-91
2023/05/20 13:47:31;;;;;;;9.02;6.35;;;;;;;;;;4828678;29;20037;-92
2023/05/20 13:49:57;;;;;;;10.20;6.47;;;;;;;;;;4828767;29;20053;-90
2023/05/20 13:52:23;;;;;;;7.88;6.60;;;;;;;;;;4842900;29;20040;-94
2023/05/20 13:54:50;;;;;;;9.52;6.82;;;;;;;;;;4831147;29;20065;-90
2023/05/20 13:57:16;;;;;;;9.57;6.40;;;;;;;;;;4845470;29;20040;-89
2023/05/20 14:00:24;;;;;;;6.70;6.00;;;;;;;;;;4851530;29;20093;-95
2023/05/20 14:03:00;;;;;;;7.30;6.32;;;;;;;;;;4827554;29;20073;-93
2023/05/20 14:06:00;;;;;;;10.05;6.70;;;;;;;;;;4835321;29;20061;-95
2023/05/20 14:08:58;;;;;;;7.97;6.72;;;;;;;;;;4810127;29;20089;-90
2023/05/20 14:11:37;;;;;;;8.80;6.53;;;;;;;;;;4827471;29;20078;-92
2023/05/20 14:14:26;;;;;;;11.25;6.90;;;;;;;;;;4830247;29;20086;-96
2023/05/20 14:17:18;;;;;;;10.13;6.32;;;;;;;;;;4844940;29;20057;-96
2023/05/20 14:19:45;;;;;;;8.43;6.30;;;;;;;;;;4832437;29;20029;-96
2023/05/20 14:25:04;;;;;;;8.45;6.55;;;;;;;;;;4903255;24;20064;-96
2023/05/20 14:27:31;;;;;;;8.80;6.57;;;;;;;;;;4861499;29;20459;-95
2023/05/20 14:33:01;;;;;;;;;;;;;;;;;;;;;
2023/05/20 14:35:30;;;;;;;7.90;6.72;;;;;;;;;;4863088;29;20053;-92
2023/05/20 14:38:03;;;;;;;9.10;6.85;;;;;;;;;;4844943;29;20022;-96
2023/05/20 14:40:29;;;;;;;12.13;7.32;;;;;;;;;;4835033;29;20038;-95
2023/05/20 14:43:03;;;;;;;8.30;7.00;;;;;;;;;;4827405;29;20041;-94
2023/05/20 14:45:36;;;;;;;8.95;6.97;;;;;;;;;;5022447;24;20066;-96
2023/05/20 14:48:37;;;;;;;11.55;7.40;;;;;;;;;;4845861;29;20117;-96
2023/05/20 14:59:40;;;;;;;9.18;7.50;;;;;;;;;;4892916;24;20069;-96
2023/05/20 15:02:14;;;;;;;8.48;6.90;;;;;;;;;;4841137;29;20072;-96
2023/05/20 15:04:43;;;;;;;9.45;7.25;;;;;;;;;;4830026;29;20034;-94
2023/05/20 15:07:09;;;;;;;9.23;6.93;;;;;;;;;;4827052;29;20065;-95
2023/05/20 15:09:35;;;;;;;10.50;7.32;;;;;;;;;;4827478;29;20038;-94
2023/05/20 15:12:01;;;;;;;9.43;6.82;;;;;;;;;;4827686;29;20030;-91
2023/05/20 15:14:27;;;;;;;8.68;6.88;;;;;;;;;;4827305;29;20081;-93
2023/05/20 15:16:53;;;;;;;11.20;7.10;;;;;;;;;;4827022;29;20034;-94
2023/05/20 15:21:55;;;;;;;15.68;6.85;;;;;;;;;;5291318;23;20084;-94
2023/05/20 15:24:22;;;;;;;9.73;7.40;;;;;;;;;;4848870;29;20029;-91